Time;durP1;ratioP1;P1;durP2;ratioP2;P2;SDS_P1;SDS_P2;PMS_P1;PMS_P2;Temp;Humidity;BMP_temperature;BMP_pressure;BME280_temperature;BME280_humidity;BME280_pressure;Samples;Min_cycle;Max_cycle;Signal;HPM_P1;HPM_P2
2022/03/02 00:00:06;;;;;;;;;;;22.10;21.20;;;;;;451227;264;993;-76
2022/03/02 00:02:07;;;;;;;;;;;22.10;21.10;;;;;;451187;264;1321;-76
2022/03/02 00:04:08;;;;;;;;;;;22.10;21.10;;;;;;451270;264;1152;-76
2022/03/02 00:06:10;;;;;;;;;;;22.10;21.20;;;;;;451249;264;1183;-77
2022/03/02 00:08:11;;;;;;;;;;;22.10;21.20;;;;;;451198;264;979;-76
2022/03/02 00:10:13;;;;;;;;;;;22.10;21.10;;;;;;451212;264;1380;-77
2022/03/02 00:12:14;;;;;;;;;;;22.10;21.10;;;;;;451201;264;970;-76
2022/03/02 00:14:15;;;;;;;;;;;22.00;21.10;;;;;;451234;264;2210;-76
2022/03/02 00:16:17;;;;;;;;;;;21.90;21.20;;;;;;451141;264;1116;-76
2022/03/02 00:18:18;;;;;;;;;;;22.00;21.20;;;;;;451184;264;1229;-76
2022/03/02 00:20:20;;;;;;;;;;;22.10;21.20;;;;;;451263;264;1175;-76
2022/03/02 00:22:21;;;;;;;;;;;22.10;21.20;;;;;;451183;264;1091;-76
2022/03/02 00:24:23;;;;;;;;;;;22.10;21.10;;;;;;451192;264;1013;-76
2022/03/02 00:26:24;;;;;;;;;;;22.20;21.10;;;;;;451188;264;1137;-76
2022/03/02 00:28:25;;;;;;;;;;;22.10;21.20;;;;;;451200;264;999;-76
2022/03/02 00:30:28;;;;;;;;;;;22.10;21.10;;;;;;451340;264;1672;-76
2022/03/02 00:32:28;;;;;;;;;;;22.10;21.10;;;;;;451126;264;1336;-76
2022/03/02 00:34:29;;;;;;;;;;;22.10;21.10;;;;;;451304;264;2119;-76
2022/03/02 00:36:31;;;;;;;;;;;22.10;21.20;;;;;;451135;264;1221;-76
2022/03/02 00:38:32;;;;;;;;;;;22.10;21.10;;;;;;451186;264;1114;-76
2022/03/02 00:40:33;;;;;;;;;;;22.00;21.10;;;;;;451276;264;1171;-76
2022/03/02 00:42:35;;;;;;;;;;;22.10;21.10;;;;;;451295;264;1118;-76
2022/03/02 00:44:36;;;;;;;;;;;22.10;21.10;;;;;;451253;264;1127;-76
2022/03/02 00:46:38;;;;;;;;;;;22.10;21.10;;;;;;451233;264;1222;-76
2022/03/02 00:48:39;;;;;;;;;;;22.10;21.10;;;;;;451261;264;1174;-76
2022/03/02 00:50:41;;;;;;;;;;;22.10;21.10;;;;;;451231;264;1143;-76
2022/03/02 00:52:42;;;;;;;;;;;22.10;21.10;;;;;;451249;264;1319;-76
2022/03/02 00:54:43;;;;;;;;;;;22.10;21.10;;;;;;451282;264;2205;-76
2022/03/02 00:56:45;;;;;;;;;;;22.10;21.10;;;;;;451294;264;1249;-76
2022/03/02 00:58:46;;;;;;;;;;;22.10;21.10;;;;;;451339;264;1188;-76
2022/03/02 01:00:47;;;;;;;;;;;22.20;21.10;;;;;;451266;261;1278;-76
2022/03/02 01:02:49;;;;;;;;;;;22.20;21.00;;;;;;451258;264;1203;-76
2022/03/02 01:04:50;;;;;;;;;;;22.20;21.10;;;;;;451304;264;954;-76
2022/03/02 01:06:51;;;;;;;;;;;22.20;21.10;;;;;;451243;264;1508;-76
2022/03/02 01:08:53;;;;;;;;;;;22.20;21.00;;;;;;451270;264;1030;-76
2022/03/02 01:10:54;;;;;;;;;;;22.30;21.00;;;;;;451274;264;1153;-76
2022/03/02 01:12:55;;;;;;;;;;;22.20;21.00;;;;;;451177;264;1019;-76
2022/03/02 01:14:57;;;;;;;;;;;22.10;21.00;;;;;;451159;264;2214;-76
2022/03/02 01:16:58;;;;;;;;;;;22.10;21.10;;;;;;451181;264;1487;-76
2022/03/02 01:18:59;;;;;;;;;;;22.20;21.00;;;;;;451239;264;1017;-76
2022/03/02 01:21:02;;;;;;;;;;;22.10;21.00;;;;;;451254;264;1479;-76
2022/03/02 01:23:02;;;;;;;;;;;22.20;21.10;;;;;;451208;264;1528;-77
2022/03/02 01:25:04;;;;;;;;;;;22.00;21.10;;;;;;451330;264;1181;-76
2022/03/02 01:27:05;;;;;;;;;;;22.10;21.10;;;;;;451242;264;1088;-76
2022/03/02 01:29:06;;;;;;;;;;;22.10;21.00;;;;;;451344;264;962;-76
2022/03/02 01:31:08;;;;;;;;;;;22.10;21.00;;;;;;451273;264;1192;-76
2022/03/02 01:33:09;;;;;;;;;;;22.10;21.00;;;;;;451326;264;963;-76
2022/03/02 01:35:11;;;;;;;;;;;22.10;20.90;;;;;;451306;264;2213;-76
2022/03/02 01:37:12;;;;;;;;;;;22.10;20.90;;;;;;451256;264;1231;-76
2022/03/02 01:39:13;;;;;;;;;;;22.10;21.00;;;;;;451342;264;1016;-76
2022/03/02 01:41:15;;;;;;;;;;;22.10;20.90;;;;;;451144;264;1316;-76
2022/03/02 01:43:16;;;;;;;;;;;22.10;20.90;;;;;;451240;264;977;-76
2022/03/02 01:45:18;;;;;;;;;;;22.10;21.00;;;;;;451247;264;1245;-76
2022/03/02 01:47:19;;;;;;;;;;;22.20;21.00;;;;;;451276;264;1431;-76
2022/03/02 01:49:21;;;;;;;;;;;22.10;20.90;;;;;;451235;264;1221;-76
2022/03/02 01:51:22;;;;;;;;;;;22.10;21.00;;;;;;451171;264;1248;-76
2022/03/02 01:53:23;;;;;;;;;;;22.20;21.00;;;;;;451234;264;1140;-76
2022/03/02 01:55:25;;;;;;;;;;;22.20;21.00;;;;;;451190;260;2194;-76
2022/03/02 01:57:26;;;;;;;;;;;22.10;20.90;;;;;;451148;264;1092;-76
2022/03/02 01:59:27;;;;;;;;;;;22.10;21.00;;;;;;451188;264;1359;-76
2022/03/02 02:01:29;;;;;;;;;;;22.10;21.00;;;;;;451244;264;1130;-76
2022/03/02 02:03:30;;;;;;;;;;;22.10;21.00;;;;;;451303;264;972;-76
2022/03/02 02:05:32;;;;;;;;;;;22.20;21.00;;;;;;451248;260;1171;-76
2022/03/02 02:07:33;;;;;;;;;;;22.10;20.90;;;;;;451261;264;1193;-76
2022/03/02 02:09:34;;;;;;;;;;;22.20;20.90;;;;;;451293;264;995;-76
2022/03/02 02:11:36;;;;;;;;;;;22.20;20.90;;;;;;451179;264;1241;-76
2022/03/02 02:13:37;;;;;;;;;;;22.20;20.90;;;;;;451290;264;2213;-76
2022/03/02 02:15:39;;;;;;;;;;;22.20;20.90;;;;;;451219;264;1934;-76
2022/03/02 02:17:41;;;;;;;;;;;22.30;20.90;;;;;;451188;264;1072;-76
2022/03/02 02:19:42;;;;;;;;;;;22.20;20.90;;;;;;451260;264;1198;-76
2022/03/02 02:21:46;;;;;;;;;;;22.10;20.90;;;;;;451203;264;1244;-77
2022/03/02 02:23:46;;;;;;;;;;;22.10;21.00;;;;;;451184;264;1496;-76
2022/03/02 02:25:47;;;;;;;;;;;22.10;21.00;;;;;;451285;264;1407;-76
2022/03/02 02:27:49;;;;;;;;;;;22.10;21.00;;;;;;451301;264;1122;-76
2022/03/02 02:29:50;;;;;;;;;;;22.10;21.00;;;;;;451273;264;929;-76
2022/03/02 02:31:51;;;;;;;;;;;22.20;20.90;;;;;;451216;260;1181;-76
2022/03/02 02:33:53;;;;;;;;;;;22.10;21.00;;;;;;451236;264;2159;-76
2022/03/02 02:35:54;;;;;;;;;;;22.10;21.00;;;;;;451250;264;1243;-76
2022/03/02 02:37:55;;;;;;;;;;;22.10;21.00;;;;;;451245;264;1174;-76
2022/03/02 02:39:57;;;;;;;;;;;22.10;20.90;;;;;;451244;264;989;-76
2022/03/02 02:41:58;;;;;;;;;;;22.10;20.90;;;;;;451227;264;1355;-76
2022/03/02 02:43:59;;;;;;;;;;;22.10;20.90;;;;;;451289;264;955;-76
2022/03/02 02:46:01;;;;;;;;;;;22.10;21.00;;;;;;451194;264;1142;-76
2022/03/02 02:48:02;;;;;;;;;;;22.10;21.00;;;;;;451167;264;1138;-76
2022/03/02 02:50:03;;;;;;;;;;;22.00;21.00;;;;;;451205;264;987;-76
2022/03/02 02:52:05;;;;;;;;;;;22.10;20.90;;;;;;451287;264;1381;-76
2022/03/02 02:54:06;;;;;;;;;;;22.20;20.90;;;;;;451286;264;2260;-76
2022/03/02 02:56:08;;;;;;;;;;;22.10;20.90;;;;;;451215;264;1277;-76
2022/03/02 02:58:09;;;;;;;;;;;22.10;21.00;;;;;;451254;264;1110;-76
2022/03/02 03:00:10;;;;;;;;;;;22.10;20.90;;;;;;451318;264;927;-76
2022/03/02 03:02:12;;;;;;;;;;;22.00;20.90;;;;;;451128;264;1203;-76
2022/03/02 03:04:13;;;;;;;;;;;22.10;21.00;;;;;;451265;264;950;-76
2022/03/02 03:06:14;;;;;;;;;;;22.10;21.00;;;;;;451192;264;1237;-76
2022/03/02 03:08:16;;;;;;;;;;;22.10;21.00;;;;;;451241;264;1171;-76
2022/03/02 03:10:17;;;;;;;;;;;22.00;20.90;;;;;;451270;264;1017;-76
2022/03/02 03:12:19;;;;;;;;;;;22.10;21.00;;;;;;451209;264;1153;-76
2022/03/02 03:14:20;;;;;;;;;;;22.10;21.00;;;;;;451241;264;2185;-76
2022/03/02 03:16:21;;;;;;;;;;;22.20;20.90;;;;;;451202;264;1095;-76
2022/03/02 03:18:23;;;;;;;;;;;22.10;20.90;;;;;;451256;264;1157;-76
2022/03/02 03:20:24;;;;;;;;;;;22.00;21.00;;;;;;451232;264;1197;-76
2022/03/02 03:22:26;;;;;;;;;;;22.10;21.00;;;;;;451209;264;1180;-76
2022/03/02 03:24:27;;;;;;;;;;;22.00;21.00;;;;;;450520;265;954;-76
2022/03/02 03:26:28;;;;;;;;;;;22.00;21.00;;;;;;451253;264;978;-76
2022/03/02 03:28:30;;;;;;;;;;;22.10;20.90;;;;;;451262;264;1511;-76
2022/03/02 03:30:31;;;;;;;;;;;22.10;21.00;;;;;;451255;264;1034;-76
2022/03/02 03:32:32;;;;;;;;;;;22.00;21.00;;;;;;451233;264;1271;-76
2022/03/02 03:34:34;;;;;;;;;;;22.10;20.90;;;;;;451283;264;2206;-76
2022/03/02 03:36:35;;;;;;;;;;;22.20;20.90;;;;;;451231;264;1147;-76
2022/03/02 03:38:36;;;;;;;;;;;22.10;21.00;;;;;;451235;264;1238;-76
2022/03/02 03:40:38;;;;;;;;;;;22.00;21.00;;;;;;451258;264;1123;-76
2022/03/02 03:42:39;;;;;;;;;;;22.10;21.00;;;;;;451311;264;1130;-76
2022/03/02 03:44:41;;;;;;;;;;;22.00;20.90;;;;;;451278;264;959;-76
2022/03/02 03:46:42;;;;;;;;;;;22.10;21.00;;;;;;451206;264;1148;-76
2022/03/02 03:48:43;;;;;;;;;;;22.00;20.90;;;;;;451283;264;971;-76
2022/03/02 03:50:45;;;;;;;;;;;22.10;21.00;;;;;;451240;264;1110;-76
2022/03/02 03:52:46;;;;;;;;;;;22.00;21.00;;;;;;451170;264;1177;-76
2022/03/02 03:54:48;;;;;;;;;;;22.10;21.00;;;;;;451269;264;2143;-76
2022/03/02 03:56:49;;;;;;;;;;;22.00;20.90;;;;;;451258;264;1088;-76
2022/03/02 03:58:50;;;;;;;;;;;22.00;21.00;;;;;;451301;264;1168;-76
2022/03/02 04:00:52;;;;;;;;;;;22.00;20.90;;;;;;451291;260;1235;-76
2022/03/02 04:02:53;;;;;;;;;;;22.00;20.90;;;;;;451261;264;964;-76
2022/03/02 04:04:54;;;;;;;;;;;22.00;20.90;;;;;;451276;264;1254;-76
2022/03/02 04:06:56;;;;;;;;;;;22.10;20.90;;;;;;451188;264;1253;-76
2022/03/02 04:08:57;;;;;;;;;;;22.00;20.90;;;;;;451244;264;1183;-76
2022/03/02 04:11:00;;;;;;;;;;;22.00;21.00;;;;;;451160;264;1315;-76
2022/03/02 04:13:00;;;;;;;;;;;22.00;20.90;;;;;;451142;263;1523;-76
2022/03/02 04:15:01;;;;;;;;;;;22.10;20.90;;;;;;451182;264;2138;-76
2022/03/02 04:17:02;;;;;;;;;;;22.10;20.90;;;;;;451267;264;1231;-76
2022/03/02 04:19:04;;;;;;;;;;;22.00;20.90;;;;;;451095;264;1010;-76
2022/03/02 04:21:06;;;;;;;;;;;22.00;21.00;;;;;;451179;261;1256;-76
2022/03/02 04:23:08;;;;;;;;;;;22.10;20.90;;;;;;451184;264;1176;-77
2022/03/02 04:25:10;;;;;;;;;;;22.10;20.90;;;;;;451173;264;1186;-76
2022/03/02 04:27:12;;;;;;;;;;;22.10;20.90;;;;;;451125;264;1269;-76
2022/03/02 04:29:14;;;;;;;;;;;22.10;21.00;;;;;;451214;264;1001;-76
2022/03/02 04:31:14;;;;;;;;;;;22.10;20.90;;;;;;451173;264;1514;-76
2022/03/02 04:33:16;;;;;;;;;;;22.10;21.00;;;;;;451196;264;1074;-76
2022/03/02 04:35:17;;;;;;;;;;;22.10;20.90;;;;;;451240;264;2198;-76
2022/03/02 04:37:18;;;;;;;;;;;22.10;20.90;;;;;;451210;264;985;-76
2022/03/02 04:39:20;;;;;;;;;;;22.10;20.90;;;;;;451303;264;1203;-76
2022/03/02 04:41:21;;;;;;;;;;;22.10;21.00;;;;;;451187;264;1106;-76
2022/03/02 04:43:23;;;;;;;;;;;22.10;20.90;;;;;;451286;264;1035;-76
2022/03/02 04:45:25;;;;;;;;;;;22.10;21.00;;;;;;451267;264;988;-76
2022/03/02 04:47:26;;;;;;;;;;;22.10;21.00;;;;;;451226;264;1076;-76
2022/03/02 04:49:27;;;;;;;;;;;22.10;21.00;;;;;;451200;264;992;-76
2022/03/02 04:51:29;;;;;;;;;;;22.10;20.90;;;;;;451234;264;1079;-76
2022/03/02 04:53:30;;;;;;;;;;;22.10;20.90;;;;;;451247;264;1069;-77
2022/03/02 04:55:32;;;;;;;;;;;22.10;21.00;;;;;;451157;264;2214;-76
2022/03/02 04:57:33;;;;;;;;;;;22.10;20.90;;;;;;451148;264;1122;-76
2022/03/02 04:59:34;;;;;;;;;;;22.10;20.90;;;;;;451222;264;997;-76
2022/03/02 05:01:36;;;;;;;;;;;22.10;21.00;;;;;;451138;264;1506;-76
2022/03/02 05:03:37;;;;;;;;;;;22.10;21.00;;;;;;451108;264;1195;-76
2022/03/02 05:05:38;;;;;;;;;;;22.10;20.90;;;;;;451026;264;1019;-76
2022/03/02 05:07:40;;;;;;;;;;;22.20;20.90;;;;;;451088;264;1238;-76
2022/03/02 05:09:41;;;;;;;;;;;22.20;20.90;;;;;;451012;264;1175;-76
2022/03/02 05:11:43;;;;;;;;;;;22.10;20.90;;;;;;450919;264;1206;-76
2022/03/02 05:13:44;;;;;;;;;;;22.10;20.90;;;;;;450928;264;1010;-76
2022/03/02 05:15:45;;;;;;;;;;;22.10;21.00;;;;;;451045;264;2131;-76
2022/03/02 05:17:47;;;;;;;;;;;22.10;21.00;;;;;;451050;264;1106;-76
2022/03/02 05:19:48;;;;;;;;;;;22.20;21.00;;;;;;450961;264;1061;-77
2022/03/02 05:21:50;;;;;;;;;;;22.10;20.90;;;;;;450944;264;1333;-76
2022/03/02 05:23:50;;;;;;;;;;;22.10;21.10;;;;;;450950;264;1250;-76
2022/03/02 05:25:52;;;;;;;;;;;22.10;20.90;;;;;;450924;264;1294;-77
2022/03/02 05:27:53;;;;;;;;;;;22.10;21.00;;;;;;450989;264;1205;-77
2022/03/02 05:29:54;;;;;;;;;;;22.10;21.00;;;;;;450894;264;987;-77
2022/03/02 05:31:56;;;;;;;;;;;22.10;21.00;;;;;;450880;264;1395;-77
2022/03/02 05:33:57;;;;;;;;;;;22.00;21.10;;;;;;450940;264;1130;-76
2022/03/02 05:35:59;;;;;;;;;;;22.00;21.00;;;;;;450892;264;2155;-76
2022/03/02 05:38:00;;;;;;;;;;;22.10;21.10;;;;;;451032;264;1176;-77
2022/03/02 05:40:02;;;;;;;;;;;22.00;21.10;;;;;;450949;264;1238;-76
2022/03/02 05:42:02;;;;;;;;;;;22.00;21.10;;;;;;450846;264;2297;-76
2022/03/02 05:44:04;;;;;;;;;;;21.90;21.20;;;;;;450828;264;1142;-77
2022/03/02 05:46:05;;;;;;;;;;;22.00;21.20;;;;;;451034;264;1168;-76
2022/03/02 05:48:07;;;;;;;;;;;22.00;21.10;;;;;;450888;264;1269;-76
2022/03/02 05:50:08;;;;;;;;;;;22.00;21.20;;;;;;450789;264;1577;-76
2022/03/02 05:52:10;;;;;;;;;;;22.00;21.10;;;;;;450745;264;1253;-76
2022/03/02 05:54:11;;;;;;;;;;;22.00;21.20;;;;;;450799;264;1204;-77
2022/03/02 05:56:12;;;;;;;;;;;22.10;21.10;;;;;;450659;264;2210;-77
2022/03/02 05:58:14;;;;;;;;;;;22.10;21.20;;;;;;450717;264;1065;-77
2022/03/02 06:00:15;;;;;;;;;;;22.00;21.20;;;;;;450719;264;1235;-77
2022/03/02 06:02:16;;;;;;;;;;;22.00;21.20;;;;;;450782;264;1244;-76
2022/03/02 06:04:17;;;;;;;;;;;22.00;21.20;;;;;;450736;264;1045;-77
2022/03/02 06:06:19;;;;;;;;;;;22.00;21.20;;;;;;450847;264;1214;-76
2022/03/02 06:08:20;;;;;;;;;;;22.00;21.20;;;;;;450763;264;1242;-76
2022/03/02 06:10:21;;;;;;;;;;;22.10;21.20;;;;;;450750;264;1210;-76
2022/03/02 06:12:23;;;;;;;;;;;22.00;21.20;;;;;;450790;264;1369;-76
2022/03/02 06:14:24;;;;;;;;;;;21.90;21.30;;;;;;450780;264;1214;-76
2022/03/02 06:16:26;;;;;;;;;;;22.00;21.20;;;;;;450664;264;2130;-76
2022/03/02 06:18:27;;;;;;;;;;;22.00;21.20;;;;;;450597;264;1487;-77
2022/03/02 06:20:28;;;;;;;;;;;21.90;21.30;;;;;;450607;264;1006;-77
2022/03/02 06:22:30;;;;;;;;;;;22.00;21.20;;;;;;450780;264;1352;-76
2022/03/02 06:24:31;;;;;;;;;;;22.10;21.20;;;;;;450751;260;1366;-76
2022/03/02 06:26:32;;;;;;;;;;;22.10;21.20;;;;;;450705;264;1311;-76
2022/03/02 06:28:34;;;;;;;;;;;22.00;21.30;;;;;;450764;264;1220;-76
2022/03/02 06:30:35;;;;;;;;;;;22.00;21.20;;;;;;450733;264;1424;-76
2022/03/02 06:32:36;;;;;;;;;;;22.10;21.20;;;;;;450612;264;1216;-77
2022/03/02 06:34:38;;;;;;;;;;;22.10;21.20;;;;;;450618;264;1082;-76
2022/03/02 06:36:39;;;;;;;;;;;22.00;21.20;;;;;;450640;263;2154;-76
2022/03/02 06:38:40;;;;;;;;;;;22.10;21.30;;;;;;450618;264;1010;-76
2022/03/02 06:40:42;;;;;;;;;;;22.00;21.20;;;;;;450714;264;1224;-76
2022/03/02 06:42:43;;;;;;;;;;;22.00;21.20;;;;;;450531;264;1189;-76
2022/03/02 06:44:44;;;;;;;;;;;22.10;21.30;;;;;;450643;264;1172;-76
2022/03/02 06:46:46;;;;;;;;;;;22.00;21.20;;;;;;450612;264;1340;-76
2022/03/02 06:48:47;;;;;;;;;;;22.00;21.30;;;;;;450544;264;1090;-76
2022/03/02 06:50:49;;;;;;;;;;;22.10;21.20;;;;;;450586;264;1397;-76
2022/03/02 06:52:50;;;;;;;;;;;22.10;21.20;;;;;;450681;264;1290;-76
2022/03/02 06:54:51;;;;;;;;;;;22.00;21.20;;;;;;450680;264;1064;-76
2022/03/02 06:56:53;;;;;;;;;;;22.10;21.30;;;;;;450656;264;2378;-76
2022/03/02 06:58:54;;;;;;;;;;;21.90;21.30;;;;;;450705;264;1112;-76
2022/03/02 07:00:56;;;;;;;;;;;21.90;21.30;;;;;;450653;264;984;-77
2022/03/02 07:02:57;;;;;;;;;;;22.00;21.30;;;;;;450791;264;1246;-76
2022/03/02 07:04:58;;;;;;;;;;;22.10;21.20;;;;;;450700;264;1245;-76
2022/03/02 07:07:00;;;;;;;;;;;22.10;21.20;;;;;;450655;264;1262;-77
2022/03/02 07:09:01;;;;;;;;;;;22.00;21.30;;;;;;450539;264;1048;-77
2022/03/02 07:11:02;;;;;;;;;;;22.10;21.20;;;;;;450692;264;1136;-77
2022/03/02 07:13:04;;;;;;;;;;;22.10;21.30;;;;;;450570;264;1134;-76
2022/03/02 07:15:05;;;;;;;;;;;22.00;21.30;;;;;;450572;264;1024;-77
2022/03/02 07:17:06;;;;;;;;;;;22.10;21.30;;;;;;450542;264;2120;-76
2022/03/02 07:19:08;;;;;;;;;;;22.10;21.30;;;;;;450494;264;1023;-77
2022/03/02 07:21:09;;;;;;;;;;;22.10;21.30;;;;;;450255;264;1319;-76
2022/03/02 07:23:10;;;;;;;;;;;22.00;21.30;;;;;;450438;264;1061;-76
2022/03/02 07:25:11;;;;;;;;;;;22.00;21.30;;;;;;450242;264;1297;-76
2022/03/02 07:27:13;;;;;;;;;;;22.00;21.40;;;;;;450364;264;1134;-76
2022/03/02 07:29:14;;;;;;;;;;;22.10;21.30;;;;;;450408;264;965;-76
2022/03/02 07:31:15;;;;;;;;;;;22.00;21.30;;;;;;450400;264;1179;-76
2022/03/02 07:33:17;;;;;;;;;;;22.00;21.40;;;;;;450399;264;1179;-76
2022/03/02 07:35:18;;;;;;;;;;;22.00;21.40;;;;;;450313;264;1003;-76
2022/03/02 07:37:20;;;;;;;;;;;22.00;21.40;;;;;;450206;264;2201;-76
2022/03/02 07:39:21;;;;;;;;;;;22.10;21.30;;;;;;450210;264;1069;-76
2022/03/02 07:41:22;;;;;;;;;;;22.00;21.40;;;;;;450165;264;1346;-76
2022/03/02 07:43:24;;;;;;;;;;;22.10;21.30;;;;;;450082;264;1064;-76
2022/03/02 07:45:25;;;;;;;;;;;22.20;21.40;;;;;;450112;264;1059;-76
2022/03/02 07:47:27;;;;;;;;;;;22.00;21.40;;;;;;450198;264;1266;-77
2022/03/02 07:49:29;;;;;;;;;;;22.00;21.40;;;;;;450247;264;1067;-76
2022/03/02 07:51:30;;;;;;;;;;;22.00;21.50;;;;;;450080;264;1430;-76
2022/03/02 07:53:31;;;;;;;;;;;22.10;21.40;;;;;;450204;264;1357;-77
2022/03/02 07:55:33;;;;;;;;;;;22.10;21.30;;;;;;450195;261;1504;-76
2022/03/02 07:57:33;;;;;;;;;;;22.20;21.40;;;;;;450390;264;2147;-76
2022/03/02 07:59:34;;;;;;;;;;;22.10;21.40;;;;;;450295;264;1181;-76
2022/03/02 08:01:36;;;;;;;;;;;22.10;21.40;;;;;;449988;264;1509;-76
2022/03/02 08:03:38;;;;;;;;;;;22.10;21.40;;;;;;450086;264;1083;-76
2022/03/02 08:05:39;;;;;;;;;;;22.00;21.40;;;;;;450153;264;1016;-76
2022/03/02 08:07:40;;;;;;;;;;;22.10;21.40;;;;;;450183;264;1081;-76
2022/03/02 08:09:42;;;;;;;;;;;22.10;21.50;;;;;;450212;264;1228;-76
2022/03/02 08:11:43;;;;;;;;;;;22.10;21.60;;;;;;450136;264;1387;-76
2022/03/02 08:13:44;;;;;;;;;;;22.10;21.50;;;;;;450077;264;1064;-76
2022/03/02 08:15:46;;;;;;;;;;;22.10;21.50;;;;;;450016;264;2198;-76
2022/03/02 08:17:47;;;;;;;;;;;22.10;21.50;;;;;;450032;264;1214;-76
2022/03/02 08:19:49;;;;;;;;;;;22.10;21.50;;;;;;450005;264;1037;-76
2022/03/02 08:21:50;;;;;;;;;;;22.10;21.60;;;;;;450243;264;1157;-76
2022/03/02 08:23:51;;;;;;;;;;;22.00;21.60;;;;;;450160;264;995;-76
2022/03/02 08:25:52;;;;;;;;;;;22.10;21.60;;;;;;450223;264;1253;-76
2022/03/02 08:27:55;;;;;;;;;;;22.10;21.60;;;;;;450192;264;1181;-76
2022/03/02 08:29:56;;;;;;;;;;;22.10;21.60;;;;;;450165;263;1230;-76
2022/03/02 08:31:56;;;;;;;;;;;22.10;21.70;;;;;;450162;264;1443;-76
2022/03/02 08:33:58;;;;;;;;;;;22.20;21.70;;;;;;450122;264;1064;-77
2022/03/02 08:35:59;;;;;;;;;;;22.20;21.70;;;;;;450051;264;2205;-76
2022/03/02 08:38:00;;;;;;;;;;;22.10;21.70;;;;;;450212;264;1196;-76
2022/03/02 08:40:02;;;;;;;;;;;22.10;21.70;;;;;;450253;264;1140;-76
2022/03/02 08:42:03;;;;;;;;;;;22.10;21.70;;;;;;450256;264;1179;-76
2022/03/02 08:44:05;;;;;;;;;;;22.10;21.60;;;;;;450116;264;992;-77
2022/03/02 08:46:07;;;;;;;;;;;22.10;21.70;;;;;;450105;264;1660;-76
2022/03/02 08:48:09;;;;;;;;;;;22.10;21.70;;;;;;450502;261;2045;-76
2022/03/02 08:50:08;;;;;;;;;;;22.10;21.70;;;;;;450071;261;1381;-76
2022/03/02 08:52:10;;;;;;;;;;;22.10;21.70;;;;;;450392;264;1285;-76
2022/03/02 08:54:12;;;;;;;;;;;22.10;21.70;;;;;;450192;264;1003;-76
2022/03/02 08:56:13;;;;;;;;;;;22.10;21.70;;;;;;450148;263;2220;-76
2022/03/02 08:58:14;;;;;;;;;;;22.10;21.80;;;;;;450216;264;1151;-76
2022/03/02 09:00:15;;;;;;;;;;;22.10;21.80;;;;;;450072;264;1053;-76
2022/03/02 09:02:17;;;;;;;;;;;22.10;21.80;;;;;;450076;264;1156;-76
2022/03/02 09:04:18;;;;;;;;;;;22.10;21.80;;;;;;450033;264;1435;-76
2022/03/02 09:06:19;;;;;;;;;;;22.10;21.80;;;;;;450046;264;1168;-76
2022/03/02 09:08:21;;;;;;;;;;;22.10;21.80;;;;;;450006;264;1141;-76
2022/03/02 09:10:22;;;;;;;;;;;22.10;21.80;;;;;;450022;264;1052;-77
2022/03/02 09:12:24;;;;;;;;;;;22.10;21.80;;;;;;450129;264;1374;-76
2022/03/02 09:14:25;;;;;;;;;;;22.20;21.80;;;;;;450193;264;1189;-77
2022/03/02 09:16:26;;;;;;;;;;;22.20;21.80;;;;;;450197;264;2217;-76
2022/03/02 09:18:28;;;;;;;;;;;22.10;21.90;;;;;;450292;264;1094;-76
2022/03/02 09:20:30;;;;;;;;;;;22.20;21.80;;;;;;450307;264;1064;-76
2022/03/02 09:22:31;;;;;;;;;;;22.20;21.80;;;;;;450219;264;2410;-76
2022/03/02 09:24:32;;;;;;;;;;;22.20;21.80;;;;;;450235;264;1038;-76
2022/03/02 09:26:33;;;;;;;;;;;22.20;21.90;;;;;;450150;261;1328;-76
2022/03/02 09:28:35;;;;;;;;;;;22.30;21.80;;;;;;450054;264;1243;-76
2022/03/02 09:30:36;;;;;;;;;;;22.30;21.80;;;;;;450047;264;1056;-76
2022/03/02 09:32:37;;;;;;;;;;;22.30;21.80;;;;;;450048;264;1123;-76
2022/03/02 09:34:39;;;;;;;;;;;22.30;21.80;;;;;;450117;264;1127;-76
2022/03/02 09:36:41;;;;;;;;;;;22.20;21.80;;;;;;450137;264;2198;-76
2022/03/02 09:38:41;;;;;;;;;;;22.30;21.80;;;;;;450034;264;1334;-76
2022/03/02 09:40:43;;;;;;;;;;;22.40;21.80;;;;;;450116;264;1232;-76
2022/03/02 09:42:44;;;;;;;;;;;22.40;21.80;;;;;;450061;264;1159;-76
2022/03/02 09:44:45;;;;;;;;;;;22.20;21.80;;;;;;450010;264;1325;-76
2022/03/02 09:46:46;;;;;;;;;;;22.30;21.80;;;;;;450048;264;1270;-76
2022/03/02 09:48:48;;;;;;;;;;;22.30;21.90;;;;;;450148;264;1061;-76
2022/03/02 09:50:49;;;;;;;;;;;22.20;21.90;;;;;;450077;264;1232;-76
2022/03/02 09:52:50;;;;;;;;;;;22.30;21.90;;;;;;450273;264;1282;-76
2022/03/02 09:54:52;;;;;;;;;;;22.30;21.90;;;;;;450195;264;1004;-77
2022/03/02 09:56:53;;;;;;;;;;;22.30;21.90;;;;;;450076;264;2210;-76
2022/03/02 09:58:54;;;;;;;;;;;22.40;21.90;;;;;;450034;264;1154;-76
2022/03/02 10:00:56;;;;;;;;;;;22.40;21.90;;;;;;450033;264;1365;-77
2022/03/02 10:02:57;;;;;;;;;;;22.30;22.00;;;;;;450407;264;1162;-76
2022/03/02 10:04:58;;;;;;;;;;;22.30;22.00;;;;;;450016;264;997;-77
2022/03/02 10:07:26;;;;;;;;;;;22.30;22.00;;;;;;450285;264;1162;-76
2022/03/02 10:09:09;;;;;;;;;;;22.30;21.90;;;;;;448912;264;1601;-76
2022/03/02 10:11:11;;;;;;;;;;;22.30;21.90;;;;;;450169;264;1174;-76
2022/03/02 10:13:12;;;;;;;;;;;22.30;21.90;;;;;;450101;261;1511;-76
2022/03/02 10:15:13;;;;;;;;;;;22.20;22.00;;;;;;450073;264;1039;-77
2022/03/02 10:17:14;;;;;;;;;;;22.30;22.10;;;;;;450384;264;2205;-76
2022/03/02 10:19:16;;;;;;;;;;;22.20;22.00;;;;;;450130;264;1046;-76
2022/03/02 10:21:17;;;;;;;;;;;22.20;22.00;;;;;;450067;264;1007;-76
2022/03/02 10:23:21;;;;;;;;;;;22.20;22.00;;;;;;450078;264;986;-76
2022/03/02 10:25:21;;;;;;;;;;;22.30;22.10;;;;;;449943;261;1410;-76
2022/03/02 10:27:22;;;;;;;;;;;22.20;22.00;;;;;;450201;264;1027;-76
2022/03/02 10:29:23;;;;;;;;;;;22.30;22.10;;;;;;450113;264;1178;-76
2022/03/02 10:31:25;;;;;;;;;;;22.20;22.00;;;;;;450126;264;988;-76
2022/03/02 10:33:26;;;;;;;;;;;22.20;22.10;;;;;;450093;264;1190;-76
2022/03/02 10:35:28;;;;;;;;;;;22.10;22.20;;;;;;449993;264;1021;-76
2022/03/02 10:37:29;;;;;;;;;;;22.10;22.20;;;;;;450097;264;2210;-76
2022/03/02 10:39:30;;;;;;;;;;;22.10;22.20;;;;;;449947;264;1210;-76
2022/03/02 10:41:32;;;;;;;;;;;22.10;22.20;;;;;;449929;264;1163;-76
2022/03/02 10:43:33;;;;;;;;;;;22.10;22.20;;;;;;450049;264;1133;-76
2022/03/02 10:45:34;;;;;;;;;;;22.10;22.30;;;;;;450007;264;1125;-76
2022/03/02 10:47:36;;;;;;;;;;;22.00;22.30;;;;;;450120;264;1169;-76
2022/03/02 10:49:37;;;;;;;;;;;22.00;22.30;;;;;;450030;264;1096;-76
2022/03/02 10:51:39;;;;;;;;;;;22.10;22.20;;;;;;449977;264;1189;-76
2022/03/02 10:53:40;;;;;;;;;;;22.00;22.30;;;;;;449934;264;1266;-76
2022/03/02 10:55:42;;;;;;;;;;;22.10;22.30;;;;;;449991;264;1065;-76
2022/03/02 10:57:43;;;;;;;;;;;22.10;22.30;;;;;;450070;264;2217;-76
2022/03/02 10:59:44;;;;;;;;;;;22.10;22.20;;;;;;450009;264;1134;-76
2022/03/02 11:01:46;;;;;;;;;;;22.10;22.30;;;;;;450054;264;1265;-76
2022/03/02 11:03:47;;;;;;;;;;;22.10;22.30;;;;;;450164;264;1333;-76
2022/03/02 11:05:48;;;;;;;;;;;22.00;22.30;;;;;;450201;264;1283;-76
2022/03/02 11:07:50;;;;;;;;;;;22.00;22.30;;;;;;450141;264;1125;-77
2022/03/02 11:09:51;;;;;;;;;;;22.00;22.40;;;;;;450095;264;1110;-76
2022/03/02 11:11:52;;;;;;;;;;;22.00;22.40;;;;;;449978;264;1142;-76
2022/03/02 11:13:54;;;;;;;;;;;22.00;22.40;;;;;;449893;264;1227;-76
2022/03/02 11:15:55;;;;;;;;;;;21.90;22.40;;;;;;450070;264;1095;-76
2022/03/02 11:17:56;;;;;;;;;;;21.90;22.40;;;;;;450010;264;2143;-76
2022/03/02 11:19:58;;;;;;;;;;;22.00;22.40;;;;;;450065;264;1026;-76
2022/03/02 11:21:59;;;;;;;;;;;21.90;22.40;;;;;;449869;264;1232;-76
2022/03/02 11:24:01;;;;;;;;;;;22.00;22.40;;;;;;449897;264;1048;-76
2022/03/02 11:26:04;;;;;;;;;;;21.90;22.40;;;;;;449990;264;1351;-76
2022/03/02 11:28:05;;;;;;;;;;;21.90;22.50;;;;;;449962;264;1237;-76
2022/03/02 11:30:05;;;;;;;;;;;21.90;22.50;;;;;;450069;264;1457;-76
2022/03/02 11:32:07;;;;;;;;;;;21.90;22.50;;;;;;449942;264;1254;-76
2022/03/02 11:34:07;;;;;;;;;;;21.80;22.50;;;;;;450412;264;1259;-76
2022/03/02 11:36:09;;;;;;;;;;;22.00;22.50;;;;;;450842;264;837;-76
2022/03/02 11:38:12;;;;;;;;;;;22.10;22.40;;;;;;450216;264;2222;-76
2022/03/02 11:40:12;;;;;;;;;;;21.90;22.50;;;;;;450356;264;1243;-76
2022/03/02 11:42:13;;;;;;;;;;;22.00;22.40;;;;;;450271;264;796;-76
2022/03/02 11:44:14;;;;;;;;;;;22.00;22.40;;;;;;450295;264;1141;-76
2022/03/02 11:46:15;;;;;;;;;;;21.90;22.50;;;;;;450396;264;1021;-76
2022/03/02 11:48:17;;;;;;;;;;;22.00;22.50;;;;;;450759;264;828;-76
2022/03/02 11:50:18;;;;;;;;;;;22.00;22.40;;;;;;450175;264;997;-76
2022/03/02 11:52:19;;;;;;;;;;;22.00;22.40;;;;;;450106;264;1245;-76
2022/03/02 11:54:21;;;;;;;;;;;22.00;22.40;;;;;;450174;264;1001;-75
2022/03/02 11:56:22;;;;;;;;;;;21.90;22.50;;;;;;450073;264;1010;-76